Time;durP1;ratioP1;P1;durP2;ratioP2;P2;SDS_P1;SDS_P2;PMS_P1;PMS_P2;Temp;Humidity;BMP_temperature;BMP_pressure;BME280_temperature;BME280_humidity;BME280_pressure;Samples;Min_cycle;Max_cycle;Signal;HPM_P1;HPM_P2
2021/03/22 00:01:46;;;;;;;17.43;4.03;;;5.80;99.90;;;;;;5087985;28;20656;-84
2021/03/22 00:04:13;;;;;;;19.67;3.20;;;5.80;99.90;;;;;;5087010;28;20223;-83
2021/03/22 00:06:40;;;;;;;24.97;3.60;;;5.70;99.90;;;;;;5082280;28;20208;-83
2021/03/22 00:09:06;;;;;;;18.67;3.17;;;5.60;99.90;;;;;;5092961;28;20224;-84
2021/03/22 00:11:33;;;;;;;23.00;3.60;;;5.60;99.90;;;;;;5084707;28;20204;-82
2021/03/22 00:13:59;;;;;;;24.30;3.90;;;5.60;99.90;;;;;;5091954;28;20283;-81
2021/03/22 00:16:26;;;;;;;21.77;3.53;;;5.60;99.90;;;;;;5077787;28;20367;-83
2021/03/22 00:18:52;;;;;;;22.90;3.73;;;5.70;99.90;;;;;;5092092;28;20211;-82
2021/03/22 00:21:20;;;;;;;25.13;3.50;;;5.70;99.90;;;;;;5080836;28;20233;-83
2021/03/22 00:23:47;;;;;;;22.07;3.93;;;5.80;99.90;;;;;;5082967;28;20224;-82
2021/03/22 00:26:13;;;;;;;24.83;3.73;;;5.80;99.90;;;;;;5089865;28;20215;-83
2021/03/22 00:28:39;;;;;;;28.90;4.07;;;5.80;99.90;;;;;;5083513;28;20287;-82
2021/03/22 00:31:08;;;;;;;22.70;4.13;;;5.80;99.90;;;;;;5089624;28;20273;-82
2021/03/22 00:33:34;;;;;;;32.00;3.73;;;5.80;99.90;;;;;;5091618;28;20644;-82
2021/03/22 00:36:01;;;;;;;31.63;5.07;;;5.80;99.90;;;;;;5092911;28;20353;-84
2021/03/22 00:38:28;;;;;;;27.53;4.20;;;5.80;99.90;;;;;;5087355;28;20295;-82
2021/03/22 00:40:55;;;;;;;23.70;3.80;;;5.90;99.90;;;;;;5090605;28;20200;-83
2021/03/22 00:43:22;;;;;;;30.67;4.07;;;6.00;99.90;;;;;;5090766;28;20220;-83
2021/03/22 00:45:49;;;;;;;27.07;4.10;;;5.90;99.90;;;;;;5090505;28;20226;-81
2021/03/22 00:48:15;;;;;;;21.07;4.23;;;6.00;99.90;;;;;;5092042;28;20738;-78
2021/03/22 00:50:43;;;;;;;21.93;3.83;;;6.00;99.90;;;;;;5095616;28;20282;-81
2021/03/22 00:53:12;;;;;;;27.23;4.03;;;6.00;99.90;;;;;;5091489;28;20203;-83
2021/03/22 00:55:40;;;;;;;24.13;3.60;;;6.00;99.90;;;;;;5091191;28;20602;-83
2021/03/22 00:58:06;;;;;;;19.87;3.77;;;6.00;99.90;;;;;;5093229;28;20297;-83
2021/03/22 01:00:36;;;;;;;28.97;3.80;;;5.90;99.90;;;;;;5090305;28;20232;-84
2021/03/22 01:03:05;;;;;;;20.57;3.50;;;5.80;99.90;;;;;;5096437;28;20232;-82
2021/03/22 01:05:31;;;;;;;28.60;4.03;;;5.80;99.90;;;;;;5096999;28;20282;-82
2021/03/22 01:07:58;;;;;;;27.07;4.10;;;5.90;99.90;;;;;;5096396;28;20282;-83
2021/03/22 01:10:33;;;;;;;21.23;3.73;;;6.00;99.90;;;;;;5096992;28;20208;-82
2021/03/22 01:13:01;;;;;;;24.90;3.67;;;5.90;99.90;;;;;;5096734;28;20517;-83
2021/03/22 01:15:27;;;;;;;16.30;3.60;;;5.90;99.90;;;;;;5096519;28;20204;-82
2021/03/22 01:17:54;;;;;;;21.93;4.50;;;5.90;99.90;;;;;;5096779;28;20656;-83
2021/03/22 01:20:26;;;;;;;20.33;4.00;;;5.90;99.90;;;;;;5089997;28;20210;-81
2021/03/22 01:22:52;;;;;;;22.57;4.43;;;5.60;99.90;;;;;;5092798;28;20207;-82
2021/03/22 01:25:18;;;;;;;19.43;3.63;;;5.60;99.90;;;;;;5091550;28;20656;-83
2021/03/22 01:27:45;;;;;;;20.90;3.50;;;5.50;99.90;;;;;;5096548;28;20208;-84
2021/03/22 01:30:16;;;;;;;25.50;4.53;;;5.40;99.90;;;;;;5092998;28;20207;-83
2021/03/22 01:32:43;;;;;;;27.27;4.40;;;5.40;99.90;;;;;;5094350;28;20198;-81
2021/03/22 01:35:10;;;;;;;25.40;4.20;;;5.50;99.90;;;;;;5093311;28;20247;-83
2021/03/22 01:37:37;;;;;;;26.27;4.77;;;5.50;99.90;;;;;;5096335;28;20613;-82
2021/03/22 01:40:09;;;;;;;34.50;5.10;;;5.50;99.90;;;;;;5095773;28;20246;-82
2021/03/22 01:42:53;;;;;;;30.17;4.27;;;5.50;99.90;;;;;;5095439;28;20661;-80
2021/03/22 01:45:20;;;;;;;25.93;4.97;;;5.30;99.90;;;;;;5095387;28;20227;-82
2021/03/22 01:47:46;;;;;;;29.77;4.80;;;5.30;99.90;;;;;;5093691;28;20214;-81
2021/03/22 01:50:19;;;;;;;25.97;5.30;;;5.20;99.90;;;;;;5089350;28;20210;-82
2021/03/22 01:52:49;;;;;;;40.70;6.70;;;5.20;99.90;;;;;;5094334;28;20665;-84
2021/03/22 01:55:16;;;;;;;23.30;4.83;;;5.10;99.90;;;;;;5093203;28;20300;-81
2021/03/22 01:57:44;;;;;;;32.33;5.53;;;5.10;99.90;;;;;;5095861;28;20252;-83
2021/03/22 02:00:26;;;;;;;19.57;4.80;;;5.10;99.90;;;;;;5094965;28;20206;-83
2021/03/22 02:02:56;;;;;;;21.83;4.50;;;5.20;99.90;;;;;;5089366;28;20210;-84
2021/03/22 02:05:27;;;;;;;26.37;5.87;;;5.20;99.90;;;;;;5095595;28;20338;-85
2021/03/22 02:07:59;;;;;;;31.13;5.17;;;5.10;99.90;;;;;;5095451;28;20234;-84
2021/03/22 02:10:25;;;;;;;29.63;5.27;;;5.20;99.90;;;;;;5095587;28;20706;-83
2021/03/22 02:12:51;;;;;;;25.80;5.20;;;5.20;99.90;;;;;;5095573;28;20230;-82
2021/03/22 02:15:18;;;;;;;26.27;5.37;;;5.20;99.90;;;;;;5095625;28;20291;-81
2021/03/22 02:17:57;;;;;;;29.00;5.00;;;5.20;99.90;;;;;;5095313;28;20236;-82
2021/03/22 02:21:06;;;;;;;27.33;5.43;;;5.20;99.90;;;;;;5090802;28;20199;-82
2021/03/22 02:24:02;;;;;;;33.50;5.77;;;5.20;99.90;;;;;;5032567;28;20317;-82
2021/03/22 02:26:57;;;;;;;28.83;6.27;;;5.20;99.90;;;;;;5009896;28;20744;-81
2021/03/22 02:29:37;;;;;;;21.13;5.27;;;5.20;99.90;;;;;;5076069;28;20628;-82
2021/03/22 02:32:13;;;;;;;26.57;6.00;;;5.10;99.90;;;;;;5092398;28;20273;-83
2021/03/22 02:34:46;;;;;;;28.33;5.63;;;5.00;99.90;;;;;;5092947;28;20726;-82
2021/03/22 02:37:49;;;;;;;28.60;6.70;;;5.10;99.90;;;;;;5095112;28;20604;-82
2021/03/22 02:40:23;;;;;;;33.83;6.57;;;5.10;99.90;;;;;;5032802;28;20217;-81
2021/03/22 02:42:51;;;;;;;27.70;6.47;;;5.20;99.90;;;;;;5032842;28;20280;-81
2021/03/22 02:45:25;;;;;;;31.83;6.30;;;5.20;99.90;;;;;;5065302;28;20259;-82
2021/03/22 02:47:52;;;;;;;36.07;5.43;;;5.20;99.90;;;;;;5081469;28;20196;-81
2021/03/22 02:50:24;;;;;;;27.70;6.33;;;5.20;99.90;;;;;;5095089;28;20291;-80
2021/03/22 02:53:08;;;;;;;30.87;6.83;;;5.30;99.90;;;;;;5091875;28;20237;-81
2021/03/22 02:55:43;;;;;;;28.50;6.07;;;5.30;99.90;;;;;;5095035;28;20219;-82
2021/03/22 02:58:14;;;;;;;23.63;6.63;;;5.30;99.90;;;;;;5094862;28;20577;-82
2021/03/22 03:00:46;;;;;;;34.33;6.67;;;5.30;99.90;;;;;;5094464;28;20661;-84
2021/03/22 03:03:17;;;;;;;39.13;7.43;;;5.40;99.90;;;;;;5094868;28;20706;-83
2021/03/22 03:05:49;;;;;;;37.63;7.57;;;5.50;99.90;;;;;;5091402;28;20288;-82
2021/03/22 03:08:17;;;;;;;33.10;6.70;;;5.60;99.90;;;;;;5095015;28;20258;-82
2021/03/22 03:10:43;;;;;;;33.50;7.37;;;5.60;99.90;;;;;;5083795;28;20589;-83
2021/03/22 03:13:10;;;;;;;32.67;6.97;;;5.60;99.90;;;;;;5093935;28;20198;-84
2021/03/22 03:15:36;;;;;;;33.57;7.87;;;5.60;99.90;;;;;;5094450;28;20299;-79
2021/03/22 03:18:03;;;;;;;37.13;8.33;;;5.60;99.90;;;;;;5094244;28;20658;-80
2021/03/22 03:20:31;;;;;;;35.53;8.50;;;5.60;99.90;;;;;;5094140;28;20286;-84
2021/03/22 03:22:59;;;;;;;29.03;7.53;;;5.60;99.90;;;;;;5089369;28;20336;-84
2021/03/22 03:25:27;;;;;;;37.27;7.87;;;5.50;99.90;;;;;;5089267;28;20323;-83
2021/03/22 03:27:53;;;;;;;44.93;8.00;;;5.60;99.90;;;;;;5091168;28;20231;-82
2021/03/22 03:30:24;;;;;;;28.17;7.70;;;5.50;99.90;;;;;;5093817;28;20558;-84
2021/03/22 03:32:50;;;;;;;38.70;8.67;;;5.50;99.90;;;;;;5094287;28;20249;-81
2021/03/22 03:35:19;;;;;;;38.93;9.20;;;5.50;99.90;;;;;;5089147;28;20291;-82
2021/03/22 03:37:45;;;;;;;39.67;9.33;;;5.50;99.90;;;;;;5091077;28;20239;-83
2021/03/22 03:40:16;;;;;;;35.80;8.13;;;5.50;99.90;;;;;;5093665;28;20732;-82
2021/03/22 03:42:42;;;;;;;36.93;8.47;;;5.60;99.90;;;;;;5093596;28;20200;-83
2021/03/22 03:45:11;;;;;;;27.80;7.67;;;5.60;99.90;;;;;;5093848;28;20252;-83
2021/03/22 03:47:38;;;;;;;40.07;8.40;;;5.60;99.90;;;;;;5093344;28;20295;-83
2021/03/22 03:50:06;;;;;;;38.53;8.27;;;5.70;99.90;;;;;;5093359;28;20674;-82
2021/03/22 03:52:33;;;;;;;30.37;8.13;;;5.70;99.90;;;;;;5094318;28;20203;-83
2021/03/22 03:54:59;;;;;;;36.20;9.53;;;5.70;99.90;;;;;;5093964;28;20235;-84
2021/03/22 03:57:26;;;;;;;32.57;9.37;;;5.70;99.90;;;;;;5093843;28;20240;-82
2021/03/22 03:59:52;;;;;;;34.80;8.57;;;5.70;99.90;;;;;;5094236;28;20346;-83
2021/03/22 04:02:19;;;;;;;28.97;8.67;;;5.70;99.90;;;;;;5093952;28;20230;-82
2021/03/22 04:04:45;;;;;;;41.93;9.80;;;5.70;99.90;;;;;;5093918;28;20241;-84
2021/03/22 04:07:12;;;;;;;34.30;7.80;;;5.80;99.90;;;;;;5094139;28;20633;-83
2021/03/22 04:09:38;;;;;;;35.90;8.77;;;5.70;99.90;;;;;;5093879;28;20214;-84
2021/03/22 04:12:05;;;;;;;29.73;8.37;;;5.80;99.90;;;;;;5107254;28;20234;-82
2021/03/22 04:14:32;;;;;;;40.27;8.77;;;5.70;99.90;;;;;;5117644;28;20188;-82
2021/03/22 04:16:59;;;;;;;38.10;8.97;;;5.70;99.90;;;;;;5117661;28;20212;-82
2021/03/22 04:19:25;;;;;;;39.23;8.53;;;5.70;99.90;;;;;;5117376;28;20191;-81
2021/03/22 04:21:52;;;;;;;33.93;8.90;;;5.70;99.90;;;;;;5117197;28;20192;-84
2021/03/22 04:24:21;;;;;;;34.30;8.57;;;5.70;99.90;;;;;;5116757;28;20232;-81
2021/03/22 04:26:47;;;;;;;33.33;8.63;;;5.80;99.90;;;;;;5118154;28;20528;-81
2021/03/22 04:29:14;;;;;;;26.63;7.70;;;5.90;99.90;;;;;;5106329;28;20204;-81
2021/03/22 04:31:41;;;;;;;29.40;8.73;;;6.00;99.90;;;;;;5094666;28;20216;-81
2021/03/22 04:34:08;;;;;;;31.07;8.77;;;5.90;99.90;;;;;;5094756;28;20299;-80
2021/03/22 04:36:36;;;;;;;30.17;8.50;;;6.00;99.90;;;;;;5093782;28;20619;-83
2021/03/22 04:39:04;;;;;;;27.27;8.07;;;5.90;99.90;;;;;;5094016;28;20206;-82
2021/03/22 04:41:31;;;;;;;32.03;7.10;;;5.90;99.90;;;;;;5093373;28;20207;-84
2021/03/22 04:43:57;;;;;;;32.77;7.80;;;5.90;99.90;;;;;;5093077;28;20309;-82
2021/03/22 04:46:24;;;;;;;29.53;7.63;;;6.00;99.90;;;;;;5093382;28;20204;-83
2021/03/22 04:48:51;;;;;;;35.40;8.17;;;6.00;99.90;;;;;;5092804;28;20231;-82
2021/03/22 04:51:17;;;;;;;32.90;8.60;;;5.90;99.90;;;;;;5092914;28;20700;-83
2021/03/22 04:53:44;;;;;;;25.77;7.10;;;5.90;99.90;;;;;;5093556;28;20289;-82
2021/03/22 04:56:10;;;;;;;37.03;8.53;;;6.00;99.90;;;;;;5089932;28;20642;-83
2021/03/22 04:58:37;;;;;;;26.83;8.37;;;5.90;99.90;;;;;;5086836;28;20292;-84
2021/03/22 05:01:05;;;;;;;33.20;7.60;;;6.00;99.90;;;;;;5093004;28;20201;-84
2021/03/22 05:03:31;;;;;;;26.70;7.47;;;6.00;99.90;;;;;;5089205;28;20212;-82
2021/03/22 05:05:58;;;;;;;34.40;8.20;;;6.00;99.90;;;;;;5092670;28;20210;-82
2021/03/22 05:08:25;;;;;;;30.93;8.33;;;5.90;99.90;;;;;;5092763;28;20299;-83
2021/03/22 05:10:57;;;;;;;30.97;8.03;;;5.90;99.90;;;;;;5093153;28;20244;-82
2021/03/22 05:13:23;;;;;;;28.63;8.43;;;5.80;99.90;;;;;;5087116;28;20665;-81
2021/03/22 05:15:50;;;;;;;30.90;8.03;;;5.80;99.90;;;;;;5089948;28;20204;-82
2021/03/22 05:18:18;;;;;;;29.80;7.93;;;5.90;99.90;;;;;;5082192;28;20426;-83
2021/03/22 05:20:46;;;;;;;31.67;8.57;;;6.00;99.90;;;;;;5085183;28;20981;-82
2021/03/22 05:23:16;;;;;;;25.60;8.07;;;6.00;99.90;;;;;;5086934;28;20195;-81
2021/03/22 05:25:42;;;;;;;30.17;8.23;;;6.00;99.90;;;;;;5084832;28;20254;-80
2021/03/22 05:28:11;;;;;;;32.77;8.07;;;6.00;99.90;;;;;;5089869;28;20205;-82
2021/03/22 05:30:38;;;;;;;26.97;8.17;;;6.00;99.90;;;;;;5089579;28;20274;-82
2021/03/22 05:33:07;;;;;;;26.97;8.50;;;6.00;99.90;;;;;;5092091;28;20291;-82
2021/03/22 05:35:34;;;;;;;30.93;8.63;;;6.00;99.90;;;;;;5087823;28;20221;-81
2021/03/22 05:38:03;;;;;;;33.10;7.93;;;5.90;99.90;;;;;;5087650;28;20216;-82
2021/03/22 05:40:35;;;;;;;31.83;9.33;;;6.00;99.90;;;;;;5087395;28;20228;-82
2021/03/22 05:43:13;;;;;;;29.90;7.90;;;6.00;99.90;;;;;;5077807;28;20283;-83
2021/03/22 05:45:54;;;;;;;27.27;8.30;;;6.10;99.90;;;;;;5087985;28;20235;-82
2021/03/22 05:48:45;;;;;;;36.23;8.73;;;6.20;99.90;;;;;;5090868;28;20208;-82
2021/03/22 05:51:29;;;;;;;31.47;7.80;;;6.20;99.90;;;;;;5081068;28;20291;-81
2021/03/22 05:54:02;;;;;;;30.77;8.20;;;6.10;99.90;;;;;;5088926;28;20725;-82
2021/03/22 05:56:40;;;;;;;34.03;7.83;;;6.00;99.90;;;;;;5087973;28;20291;-82
2021/03/22 05:59:22;;;;;;;30.23;7.70;;;6.20;99.90;;;;;;5087308;28;20208;-82
2021/03/22 06:01:54;;;;;;;26.40;7.77;;;6.20;99.90;;;;;;5094351;28;20609;-83
2021/03/22 06:04:28;;;;;;;34.07;7.43;;;6.20;99.90;;;;;;5092970;28;20676;-81
2021/03/22 06:06:54;;;;;;;29.57;7.90;;;6.30;99.90;;;;;;5095413;28;20723;-83
2021/03/22 06:09:30;;;;;;;28.77;7.83;;;6.30;99.90;;;;;;5095617;28;20287;-83
2021/03/22 06:12:01;;;;;;;35.08;8.95;;;6.40;99.90;;;;;;5093841;28;20477;-82
2021/03/22 06:14:38;;;;;;;28.40;7.90;;;6.30;99.90;;;;;;5083925;28;20235;-83
2021/03/22 06:17:11;;;;;;;29.50;7.73;;;6.30;99.90;;;;;;5088376;28;20206;-81
2021/03/22 06:19:43;;;;;;;33.93;7.73;;;6.20;99.90;;;;;;5083292;28;20201;-82
2021/03/22 06:22:20;;;;;;;32.77;8.93;;;6.30;99.90;;;;;;5082035;28;20234;-81
2021/03/22 06:24:46;;;;;;;24.73;7.80;;;6.30;99.90;;;;;;5088270;28;20219;-82
2021/03/22 06:27:16;;;;;;;29.43;8.07;;;6.50;99.90;;;;;;5087561;28;20234;-82
2021/03/22 06:29:43;;;;;;;39.60;8.80;;;6.40;99.90;;;;;;5087710;28;20196;-83
2021/03/22 06:32:17;;;;;;;21.63;7.40;;;6.30;99.90;;;;;;5088430;28;20213;-83
2021/03/22 06:34:49;;;;;;;25.57;7.80;;;6.30;99.90;;;;;;5090413;28;20659;-81
2021/03/22 06:37:18;;;;;;;32.50;8.23;;;6.40;99.90;;;;;;5080257;28;20204;-81
2021/03/22 06:39:46;;;;;;;26.83;7.03;;;6.50;99.90;;;;;;5085465;28;20201;-82
2021/03/22 06:42:23;;;;;;;29.77;7.50;;;6.60;99.90;;;;;;5092919;28;20735;-82
2021/03/22 06:44:51;;;;;;;23.33;7.20;;;6.70;99.90;;;;;;5091283;28;20692;-83
2021/03/22 06:47:27;;;;;;;29.77;7.90;;;6.80;99.90;;;;;;5087964;28;20265;-78
2021/03/22 06:50:15;;;;;;;22.80;7.07;;;6.80;99.90;;;;;;5091590;28;20212;-80
2021/03/22 06:52:46;;;;;;;26.20;7.60;;;6.90;99.90;;;;;;5094927;28;20188;-79
2021/03/22 06:55:28;;;;;;;23.53;6.23;;;6.80;99.90;;;;;;5094485;28;20205;-79
2021/03/22 06:57:55;;;;;;;21.93;5.80;;;6.70;99.90;;;;;;5094411;28;20294;-80
2021/03/22 07:00:23;;;;;;;26.43;6.23;;;6.80;99.90;;;;;;5094691;28;20566;-80
2021/03/22 07:02:52;;;;;;;24.27;6.33;;;6.60;99.90;;;;;;5094402;28;20201;-78
2021/03/22 07:05:22;;;;;;;22.00;6.40;;;6.70;99.90;;;;;;5093709;28;20219;-79
2021/03/22 07:07:55;;;;;;;28.10;6.40;;;6.70;99.90;;;;;;5093151;28;20300;-78
2021/03/22 07:10:22;;;;;;;26.93;6.33;;;6.80;99.90;;;;;;5080529;28;20673;-83
2021/03/22 07:13:13;;;;;;;23.80;6.00;;;6.80;99.90;;;;;;5090717;28;20295;-80
2021/03/22 07:15:40;;;;;;;23.83;6.37;;;7.10;99.90;;;;;;5093697;28;20590;-80
2021/03/22 07:18:16;;;;;;;21.30;5.90;;;7.30;99.90;;;;;;5090969;28;20672;-81
2021/03/22 07:20:44;;;;;;;22.57;5.70;;;7.50;99.90;;;;;;5093643;28;20278;-80
2021/03/22 07:23:28;;;;;;;25.10;6.07;;;7.70;99.90;;;;;;5089556;28;20197;-80
2021/03/22 07:25:57;;;;;;;19.40;6.23;;;7.90;99.90;;;;;;5093073;28;20230;-79
2021/03/22 07:28:39;;;;;;;18.43;5.83;;;8.10;99.90;;;;;;5093640;28;20200;-79
2021/03/22 07:31:13;;;;;;;21.33;6.23;;;8.40;99.90;;;;;;5093537;28;20291;-81
2021/03/22 07:33:48;;;;;;;17.57;5.73;;;8.60;99.90;;;;;;5093633;28;20193;-81
2021/03/22 07:36:39;;;;;;;18.03;5.60;;;8.60;99.90;;;;;;5090229;28;20202;-80
2021/03/22 07:39:30;;;;;;;23.47;6.80;;;8.70;99.90;;;;;;5092750;28;20736;-79
2021/03/22 07:42:10;;;;;;;19.63;5.83;;;8.70;99.90;;;;;;5081994;28;20289;-79
2021/03/22 07:45:07;;;;;;;21.87;6.70;;;8.90;99.90;;;;;;5073094;28;20228;-79
2021/03/22 07:47:53;;;;;;;21.80;6.17;;;9.10;99.90;;;;;;5077078;28;20194;-79
2021/03/22 07:50:24;;;;;;;26.70;6.53;;;8.80;99.90;;;;;;5081018;28;20201;-78
2021/03/22 07:52:55;;;;;;;21.20;5.80;;;8.90;99.90;;;;;;5072990;28;20276;-79
2021/03/22 07:55:44;;;;;;;24.90;5.83;;;8.80;99.90;;;;;;5073461;28;20288;-79
2021/03/22 07:58:19;;;;;;;20.97;5.17;;;8.50;99.90;;;;;;5072467;28;20290;-79
2021/03/22 08:00:58;;;;;;;21.57;5.67;;;8.70;99.90;;;;;;5072585;28;20239;-79
2021/03/22 08:03:27;;;;;;;22.87;5.57;;;8.80;99.90;;;;;;5074408;28;20278;-77
2021/03/22 08:06:13;;;;;;;20.80;6.90;;;8.80;99.90;;;;;;5094423;28;20235;-79
2021/03/22 08:08:51;;;;;;;19.33;6.27;;;8.80;99.90;;;;;;5085506;28;20244;-81
2021/03/22 08:11:25;;;;;;;15.67;5.20;;;8.90;99.90;;;;;;5092700;28;20688;-79
2021/03/22 08:13:58;;;;;;;17.27;6.10;;;8.80;99.90;;;;;;5093144;28;20641;-79
2021/03/22 08:16:55;;;;;;;18.77;6.13;;;8.70;99.90;;;;;;5093074;28;20221;-79
2021/03/22 08:19:27;;;;;;;15.97;5.77;;;8.70;99.90;;;;;;5084462;28;20276;-77
2021/03/22 08:22:00;;;;;;;18.37;6.17;;;8.90;99.90;;;;;;5079444;28;20195;-78
2021/03/22 08:24:45;;;;;;;14.73;5.60;;;8.80;99.90;;;;;;5078940;28;20214;-79
2021/03/22 08:27:13;;;;;;;20.00;6.37;;;8.70;99.90;;;;;;5082230;28;20273;-78
2021/03/22 08:29:49;;;;;;;19.53;6.43;;;9.00;99.90;;;;;;5077334;28;20301;-80
2021/03/22 08:32:32;;;;;;;20.10;5.80;;;8.80;99.90;;;;;;5086942;28;20207;-78
2021/03/22 08:35:08;;;;;;;22.50;6.20;;;9.00;99.90;;;;;;5078911;28;20307;-77
2021/03/22 08:37:39;;;;;;;17.90;5.90;;;9.00;99.90;;;;;;5079827;28;20196;-78
2021/03/22 08:40:13;;;;;;;19.77;6.43;;;9.00;99.90;;;;;;5082715;28;20639;-78
2021/03/22 08:42:44;;;;;;;17.33;5.93;;;8.70;99.90;;;;;;5074143;28;20186;-79
2021/03/22 08:45:16;;;;;;;17.47;6.03;;;8.50;99.90;;;;;;5079195;28;20254;-80
2021/03/22 08:47:50;;;;;;;20.00;5.93;;;8.80;99.90;;;;;;5078526;28;20246;-79
2021/03/22 08:50:19;;;;;;;15.43;6.30;;;8.90;99.90;;;;;;5079573;28;20520;-78
2021/03/22 08:52:55;;;;;;;17.03;5.57;;;8.90;99.90;;;;;;5082956;28;20339;-77
2021/03/22 08:55:22;;;;;;;18.63;6.93;;;8.80;99.90;;;;;;5077571;28;20620;-80
2021/03/22 08:57:59;;;;;;;18.70;6.13;;;9.00;99.90;;;;;;5083836;28;20201;-80
2021/03/22 09:00:30;;;;;;;14.97;5.90;;;9.10;99.90;;;;;;5074952;28;20211;-77
2021/03/22 09:03:00;;;;;;;15.97;6.30;;;9.20;99.90;;;;;;5080343;28;20301;-78
2021/03/22 09:05:31;;;;;;;18.03;6.30;;;9.40;99.90;;;;;;5075234;28;20576;-82
2021/03/22 09:08:19;;;;;;;19.10;5.93;;;9.50;99.90;;;;;;5076000;28;20204;-79
2021/03/22 09:10:46;;;;;;;18.03;6.33;;;9.50;99.90;;;;;;5072329;28;20200;-78
2021/03/22 09:13:32;;;;;;;19.87;6.80;;;9.70;99.90;;;;;;5082673;28;20237;-79
2021/03/22 09:16:21;;;;;;;19.97;6.73;;;9.50;99.90;;;;;;5093985;28;20208;-79
2021/03/22 09:19:26;;;;;;;18.00;6.57;;;9.40;99.90;;;;;;5069262;28;20294;-82
2021/03/22 09:22:36;;;;;;;22.87;6.77;;;9.20;99.90;;;;;;5089809;28;20282;-82
2021/03/22 09:25:04;;;;;;;20.10;6.47;;;9.20;99.90;;;;;;5078843;28;20317;-80
2021/03/22 09:27:34;;;;;;;25.30;7.23;;;9.20;99.90;;;;;;5084995;28;20232;-78
2021/03/22 09:30:33;;;;;;;19.27;6.03;;;9.40;99.90;;;;;;5075250;28;20233;-79
2021/03/22 09:32:59;;;;;;;22.83;6.93;;;9.30;99.90;;;;;;5083068;28;20187;-80
2021/03/22 09:36:03;;;;;;;15.90;6.13;;;9.30;99.90;;;;;;5075662;28;20309;-80
2021/03/22 09:38:45;;;;;;;15.53;5.80;;;9.00;99.90;;;;;;5079521;28;20278;-78
2021/03/22 09:41:12;;;;;;;19.27;6.33;;;9.10;99.90;;;;;;5080593;28;20624;-78
2021/03/22 09:43:47;;;;;;;16.27;5.63;;;8.80;99.90;;;;;;5088199;28;20573;-80
2021/03/22 09:46:31;;;;;;;17.73;6.20;;;8.80;99.90;;;;;;5095868;28;20280;-81
2021/03/22 09:49:20;;;;;;;15.63;6.00;;;8.90;99.90;;;;;;5095902;28;20185;-79
2021/03/22 09:51:51;;;;;;;14.57;6.13;;;8.80;99.90;;;;;;5083810;28;20739;-79
2021/03/22 09:54:42;;;;;;;21.10;5.97;;;8.70;99.90;;;;;;5084985;28;20198;-79
2021/03/22 09:57:32;;;;;;;16.37;6.80;;;8.80;99.90;;;;;;5079760;28;20551;-79
2021/03/22 10:00:48;;;;;;;15.67;6.20;;;9.00;99.90;;;;;;5086220;28;20679;-79
2021/03/22 10:03:38;;;;;;;15.80;6.33;;;8.90;99.90;;;;;;5071133;28;20205;-81
2021/03/22 10:06:06;;;;;;;17.87;6.33;;;9.00;99.90;;;;;;5074518;28;20260;-77
2021/03/22 10:08:35;;;;;;;19.43;6.23;;;8.70;99.90;;;;;;5079439;28;20213;-79
2021/03/22 10:11:04;;;;;;;18.57;5.60;;;8.40;99.90;;;;;;5074269;28;20237;-79
2021/03/22 10:13:34;;;;;;;16.30;5.93;;;8.50;99.90;;;;;;5081042;28;20213;-80
2021/03/22 10:16:09;;;;;;;20.50;5.97;;;8.50;99.90;;;;;;5084864;28;20288;-81
2021/03/22 10:18:39;;;;;;;19.70;5.90;;;8.70;99.90;;;;;;5091459;28;20274;-79
2021/03/22 10:21:11;;;;;;;14.00;4.90;;;8.60;99.90;;;;;;5083303;28;20666;-78
2021/03/22 10:23:51;;;;;;;16.43;4.47;;;8.40;99.90;;;;;;5080371;28;20309;-81
2021/03/22 10:26:22;;;;;;;14.73;4.63;;;8.20;99.90;;;;;;5082886;28;20657;-77
2021/03/22 10:28:49;;;;;;;18.70;3.80;;;8.20;99.90;;;;;;5079491;28;20191;-79
2021/03/22 10:31:20;;;;;;;11.13;4.30;;;8.20;99.90;;;;;;5080447;28;20204;-77
2021/03/22 10:33:49;;;;;;;15.17;4.53;;;8.50;99.90;;;;;;5084855;28;20680;-83
2021/03/22 10:36:25;;;;;;;15.80;3.97;;;8.60;99.90;;;;;;5087112;28;20631;-80
2021/03/22 10:38:54;;;;;;;11.20;3.80;;;8.60;99.90;;;;;;5085483;28;20293;-79
2021/03/22 10:41:29;;;;;;;14.43;4.00;;;8.50;99.90;;;;;;5088775;28;20283;-77
2021/03/22 10:43:57;;;;;;;12.63;4.40;;;8.50;99.90;;;;;;5087019;28;20558;-81
2021/03/22 10:46:26;;;;;;;8.83;3.00;;;8.60;99.90;;;;;;5100434;28;20209;-78
2021/03/22 10:49:01;;;;;;;8.90;2.93;;;8.80;99.90;;;;;;5094334;28;20242;-77
2021/03/22 10:51:37;;;;;;;9.93;2.70;;;8.90;99.90;;;;;;5081739;28;20235;-78
2021/03/22 10:54:08;;;;;;;8.73;2.70;;;9.00;99.90;;;;;;5089126;28;20204;-76
2021/03/22 10:56:39;;;;;;;7.77;2.70;;;8.90;99.90;;;;;;5088051;28;20222;-78
2021/03/22 10:59:11;;;;;;;8.80;2.83;;;8.90;99.90;;;;;;5096153;28;20209;-78
2021/03/22 11:01:39;;;;;;;7.43;2.33;;;8.90;99.90;;;;;;5084799;28;20242;-78
2021/03/22 11:04:13;;;;;;;10.57;2.63;;;8.90;99.90;;;;;;5095079;28;20784;-79
2021/03/22 11:06:40;;;;;;;8.23;3.00;;;9.30;99.90;;;;;;5074593;28;20209;-80
2021/03/22 11:09:21;;;;;;;15.03;3.83;;;9.60;99.90;;;;;;5094464;28;20720;-79
2021/03/22 11:11:48;;;;;;;16.60;4.10;;;9.60;99.90;;;;;;5095486;28;20197;-79
2021/03/22 11:14:17;;;;;;;10.07;3.43;;;9.90;99.90;;;;;;5091462;28;20198;-77
2021/03/22 11:16:44;;;;;;;15.37;3.47;;;10.00;99.90;;;;;;5081644;28;20203;-78
2021/03/22 11:19:24;;;;;;;12.60;4.20;;;10.10;99.90;;;;;;5091691;28;20297;-82
2021/03/22 11:21:52;;;;;;;12.77;4.17;;;10.20;99.90;;;;;;5077353;28;20699;-83
2021/03/22 11:24:34;;;;;;;13.97;3.50;;;10.00;99.90;;;;;;5078677;28;20298;-82
2021/03/22 11:27:03;;;;;;;12.00;3.40;;;10.00;99.90;;;;;;5082230;28;20259;-79
2021/03/22 11:29:30;;;;;;;10.33;3.53;;;9.80;99.90;;;;;;5088697;28;20308;-79
2021/03/22 11:32:00;;;;;;;12.87;3.40;;;9.60;99.90;;;;;;5077536;28;20219;-77
2021/03/22 11:34:30;;;;;;;15.20;3.67;;;9.70;99.90;;;;;;5079219;28;20202;-79
2021/03/22 11:37:15;;;;;;;13.50;4.10;;;9.80;99.90;;;;;;5081207;28;20290;-78
2021/03/22 11:39:43;;;;;;;12.60;3.57;;;9.80;99.90;;;;;;5082370;28;20193;-77
2021/03/22 11:42:25;;;;;;;9.37;3.40;;;9.90;99.90;;;;;;5078514;28;20210;-81
2021/03/22 11:44:52;;;;;;;9.57;3.30;;;9.60;99.90;;;;;;5073655;28;20222;-79
2021/03/22 11:47:36;;;;;;;12.77;3.37;;;9.40;99.90;;;;;;5079330;28;20677;-82
2021/03/22 11:50:19;;;;;;;6.43;2.63;;;9.20;99.90;;;;;;5074833;28;20703;-81
2021/03/22 11:52:46;;;;;;;11.27;2.13;;;8.90;99.90;;;;;;5071744;28;20208;-80
2021/03/22 11:55:33;;;;;;;9.47;2.27;;;8.50;99.90;;;;;;5077308;28;20294;-81
2021/03/22 11:58:00;;;;;;;8.13;2.17;;;8.40;99.90;;;;;;5085979;28;20219;-81
2021/03/22 12:00:28;;;;;;;11.73;2.47;;;8.50;99.90;;;;;;5077884;28;20211;-80
2021/03/22 12:02:59;;;;;;;8.67;2.23;;;8.50;99.90;;;;;;5088549;28;20758;-79
2021/03/22 12:05:29;;;;;;;13.07;1.80;;;8.50;99.90;;;;;;5075726;28;20208;-79
2021/03/22 12:07:55;;;;;;;11.57;2.17;;;8.50;99.90;;;;;;5078776;28;20283;-80
2021/03/22 12:10:27;;;;;;;4.83;1.60;;;8.70;99.90;;;;;;5064376;28;20703;-80
2021/03/22 12:12:55;;;;;;;11.20;1.90;;;8.70;99.90;;;;;;5073063;28;20186;-79
2021/03/22 12:15:23;;;;;;;6.60;1.90;;;8.60;99.90;;;;;;5080284;28;20224;-77
2021/03/22 12:17:55;;;;;;;8.30;1.67;;;9.00;99.90;;;;;;5082515;28;20195;-80
2021/03/22 12:20:29;;;;;;;3.17;1.73;;;9.30;99.90;;;;;;5081942;28;20312;-81
2021/03/22 12:22:56;;;;;;;7.47;1.70;;;9.60;99.90;;;;;;5082873;28;20210;-82
2021/03/22 12:25:25;;;;;;;5.50;1.73;;;9.80;99.90;;;;;;5075050;28;20247;-81
2021/03/22 12:27:52;;;;;;;8.73;1.80;;;10.20;99.90;;;;;;5083859;28;20232;-81
2021/03/22 12:30:21;;;;;;;2.43;1.60;;;10.70;99.90;;;;;;5079774;28;20302;-78
2021/03/22 12:32:48;;;;;;;5.43;1.57;;;10.80;99.90;;;;;;5083024;28;20615;-79
2021/03/22 12:35:17;;;;;;;5.83;2.27;;;11.30;99.90;;;;;;5081025;28;20205;-79
2021/03/22 12:37:44;;;;;;;7.43;1.67;;;11.60;99.90;;;;;;5088659;28;20256;-80
2021/03/22 12:40:13;;;;;;;5.63;1.40;;;11.50;99.90;;;;;;5082844;28;20290;-80
2021/03/22 12:42:42;;;;;;;7.37;2.30;;;11.50;99.90;;;;;;5084054;28;20213;-81
2021/03/22 12:45:15;;;;;;;7.97;1.80;;;11.40;99.90;;;;;;5075071;28;20213;-82
2021/03/22 12:47:43;;;;;;;6.73;1.77;;;11.30;99.90;;;;;;5082985;28;20284;-80
2021/03/22 12:50:20;;;;;;;8.33;1.83;;;11.50;99.90;;;;;;5080071;28;20296;-81
2021/03/22 12:52:49;;;;;;;9.70;2.43;;;11.60;99.90;;;;;;5069418;28;20221;-79
2021/03/22 12:55:16;;;;;;;8.20;2.30;;;12.00;99.90;;;;;;5074528;28;20213;-79
2021/03/22 12:57:42;;;;;;;5.47;2.30;;;12.20;99.90;;;;;;5090739;28;20288;-78
2021/03/22 13:00:11;;;;;;;5.47;1.60;;;12.20;99.90;;;;;;5086849;28;20199;-79
2021/03/22 13:02:39;;;;;;;6.37;1.63;;;12.50;99.90;;;;;;5085395;28;20221;-79
2021/03/22 13:05:17;;;;;;;7.90;2.47;;;12.80;99.90;;;;;;5085224;28;20242;-81
2021/03/22 13:07:44;;;;;;;8.23;2.30;;;12.90;99.90;;;;;;5080997;28;20205;-79
2021/03/22 13:10:12;;;;;;;6.67;2.07;;;12.80;99.90;;;;;;5084275;28;20199;-80
2021/03/22 13:12:39;;;;;;;3.77;1.13;;;12.70;99.90;;;;;;5089656;28;20286;-80
2021/03/22 13:15:07;;;;;;;4.67;1.40;;;12.30;99.90;;;;;;5090968;28;20263;-79